logo dgac
Martes 21 de Mayo del 2019
Buscar por aerodromo o helipuerto
Ingrese nombre de aeródromo, localidad o designador OACI:

Aeródromo: El Loa (PUB) (SCCF)

Ubicación: Calama, II Región, Chile (22º 30' 00'' S, 68º 54' 11'' W) Ver ubicación en el mapa

Pistas

Orientación Dimensión Pendiente Superficie Resistencia APCH THR RWY PAPI
10/28 3040 x 45 ASPH PCN 49 F/A/W/T No
Horas de operación H24
Elevación 2326 m / 7631 ft
Otra Información Adm : D.G.A.C.
Uso : PUB
Ubicado : 6 km SE Calama
TEL : (56)-55 234 2646

Otra información ver AIP-Chile Volumen I AD 3.9-3.1-C

CCCM/FCCV Descargar
andera de Chile
Mapa de El Loa (PUB) (SCCF)

Último METAR

METAR SCCF 210700Z 11017KT CAVOK 04/M09 Q1026

Último TAF

TAF SCCF 210448Z 2106/2206 11020KT CAVOK TNM01/2110Z TX21/2118Z BECMG 2114/2115 26004KT BECMG 2116/2118 27020KT BECMG 2122/2124 26010KT BECMG 2204/2206 11015KT

Últimas fotos cámaras

Imagen aerodromo El Loa (PUB) (SCCF) Oeste tomada el 17-03-2019 02:15:43 Imagen aerodromo El Loa (PUB) (SCCF) Este tomada el 21-05-2019 03:43:25

Último NOTAM

B0649/19 NOTAMN Q)SCFZ/QCALT/IV/B/AE/000/999/2229S06854W080 A)SCCF B)1905091244 C)1908082359 E)ANTOFAGASTA APP FREQ 120.9 MHZ AND 119.3 MHZ LTD COVERAGE UNDER FL150 IN TMA CALAMA ALTN FREQ: CALAMA TWR 118.7 MHZ

LLegadas a El Loa (PUB) (SCCF)

En vuelo

Vuelo Procedencia Hora Despegue Local Hora Arribo Local

Salidas de El Loa (PUB) (SCCF)

En vuelo

Vuelo Hacia Hora Despegue Local Hora Arribo Local